Bar Harbor, ME

5:19 PM EDT on August 24, 2016 (GMT -0400)
19 Strawberry Hill Road | | Change Station

Elev 173 ft 44.37 °N, 68.20 °W | Updated 11 seconds ago

Clear
Clear
76.5 °F
Feels Like 78 °F
N
7.0
Wind Variable Wind from WSW
Gusts 10.0 mph

Today
High -- | Low -- °F
--% Chance of Precip.
Yesterday
High -- | Low -- °F
Precip. -- in
Pressure 30.14 in
Visibility 10.0 miles
Clouds Clear
Heat Index 78 °F
Dew Point 59 °F
Humidity 55%
Rainfall 0.00 in
Snow Depth Not available.
5:46 AM 7:22 PM
Waning Gibbous, 53% visible
METAR KBHB 242056Z AUTO 19012KT 10SM CLR 22/16 A3013 RMK AO2 SLP206 T02220156 56006
Pressure 30.14 in
Visibility 10.0 miles
Clouds Clear
Heat Index 78 °F
Dew Point 59 °F
Humidity 55%
Rainfall 0.00 in
Snow Depth Not available.
5:46 AM 7:22 PM
Waning Gibbous, 53% visible
METAR KBHB 242056Z AUTO 19012KT 10SM CLR 22/16 A3013 RMK AO2 SLP206 T02220156 56006

10-Day Weather Forecast

Almanac

Astronomy

Aug. 24, 2016 Rise Set
Actual Time
Civil Twilight
Nautical Twilight
Astronomical Twilight
Moon
Length of Visible Light
Length of Day
Tomorrow will be .
, % of the Moon is Illuminated

Today's Extremes

State Highs State Lows

Community

WunderPhotos

Upload Photos

1,934,717 photos uploaded!

WunderBlog® & News

Nearby

Air Quality

  Air Quality AQ Index Pollutant
Not available.

Snow Depth

Station Depth Elevation

Earthquake Activity

City Distance Mag. Time & Date
Minimum magnitude displayed is 2.5.

Coastal Water Temperatures

Place Temperature

Stations

Nearby Weather Stations

Station Location Temp. Windchill Dew Point Humidity Wind Precip. Elev Updated Type
                   

Watches & Warnings

There are currently no watches in effect.